Time;durP1;ratioP1;P1;durP2;ratioP2;P2;SDS_P1;SDS_P2;PMS_P1;PMS_P2;Temp;Humidity;BMP_temperature;BMP_pressure;BME280_temperature;BME280_humidity;BME280_pressure;Samples;Min_cycle;Max_cycle;Signal;HPM_P1;HPM_P2
2022/09/30 00:01:45;;;;;;;14.70;8.68;;;;;;;;;;4969419;28;20030;-75
2022/09/30 00:04:15;;;;;;;12.18;8.00;;;;;;;;;;4968531;28;20586;-74
2022/09/30 00:06:41;;;;;;;12.00;8.37;;;;;;;;;;4969685;28;20110;-74
2022/09/30 00:09:10;;;;;;;14.48;7.55;;;;;;;;;;4966491;28;20396;-75
2022/09/30 00:11:38;;;;;;;10.95;7.15;;;;;;;;;;4981480;28;20767;-74
2022/09/30 00:14:04;;;;;;;12.65;7.97;;;;;;;;;;4964571;28;20577;-75
2022/09/30 00:16:35;;;;;;;13.73;8.50;;;;;;;;;;4968978;28;20030;-74
2022/09/30 00:19:03;;;;;;;;;;;;;;;;;;4962766;28;20030;-74
2022/09/30 00:21:29;;;;;;;14.75;9.27;;;;;;;;;;4968755;28;19933;-74
2022/09/30 00:23:55;;;;;;;16.60;8.55;;;;;;;;;;4960499;28;20480;-74
2022/09/30 00:26:22;;;;;;;13.75;7.88;;;;;;;;;;4969234;28;20026;-74
2022/09/30 00:28:51;;;;;;;11.23;7.78;;;;;;;;;;4965949;28;20535;-74
2022/09/30 00:31:18;;;;;;;17.73;9.05;;;;;;;;;;4964970;28;20527;-73
2022/09/30 00:34:05;;;;;;;17.75;10.48;;;;;;;;;;4968342;28;20118;-77
2022/09/30 00:36:45;;;;;;;18.48;10.40;;;;;;;;;;4969684;28;20178;-75
2022/09/30 00:39:12;;;;;;;17.48;9.55;;;;;;;;;;4964326;28;20574;-74
2022/09/30 00:41:38;;;;;;;19.33;10.25;;;;;;;;;;4968830;28;20107;-77
2022/09/30 00:44:27;;;;;;;15.65;8.07;;;;;;;;;;4964986;28;20123;-77
2022/09/30 00:46:54;;;;;;;12.18;7.10;;;;;;;;;;4973293;28;20050;-77
2022/09/30 00:49:22;;;;;;;14.65;9.18;;;;;;;;;;4972721;28;20035;-76
2022/09/30 00:51:52;;;;;;;26.58;13.02;;;;;;;;;;5003121;28;20070;-76
2022/09/30 00:54:23;;;;;;;19.92;11.77;;;;;;;;;;4970212;28;20034;-76
2022/09/30 00:56:52;;;;;;;18.33;11.15;;;;;;;;;;4971574;28;20058;-75
2022/09/30 00:59:24;;;;;;;16.45;10.77;;;;;;;;;;4970600;28;20035;-75
2022/09/30 01:01:50;;;;;;;13.55;9.63;;;;;;;;;;4968893;28;20026;-78
2022/09/30 01:04:21;;;;;;;16.63;11.85;;;;;;;;;;4968817;28;20432;-76
2022/09/30 01:06:47;;;;;;;27.00;13.57;;;;;;;;;;4970947;28;20085;-76
2022/09/30 01:09:13;;;;;;;22.52;13.52;;;;;;;;;;4970193;28;20074;-76
2022/09/30 01:11:39;;;;;;;22.85;12.82;;;;;;;;;;4967815;28;20089;-76
2022/09/30 01:14:08;;;;;;;20.15;12.43;;;;;;;;;;4969454;28;20035;-75
2022/09/30 01:16:43;;;;;;;16.83;11.98;;;;;;;;;;4966200;28;20053;-76
2022/09/30 01:19:15;;;;;;;20.17;11.88;;;;;;;;;;4962658;28;20038;-75
2022/09/30 01:22:19;;;;;;;21.05;12.98;;;;;;;;;;4966491;28;20089;-75
2022/09/30 01:25:03;;;;;;;18.23;11.70;;;;;;;;;;4980599;28;20074;-75
2022/09/30 01:27:58;;;;;;;23.15;13.30;;;;;;;;;;4981717;28;20690;-74
2022/09/30 01:30:43;;;;;;;21.45;13.88;;;;;;;;;;4985676;28;20038;-74
2022/09/30 01:33:29;;;;;;;29.90;14.38;;;;;;;;;;4966743;28;20081;-75
2022/09/30 01:36:14;;;;;;;26.23;14.65;;;;;;;;;;4968357;28;20514;-74
2022/09/30 01:39:05;;;;;;;22.80;14.32;;;;;;;;;;4979647;28;20035;-74
2022/09/30 01:41:31;;;;;;;26.55;15.73;;;;;;;;;;4968226;28;20057;-74
2022/09/30 01:44:04;;;;;;;19.45;13.00;;;;;;;;;;4961225;28;20066;-75
2022/09/30 01:46:37;;;;;;;20.65;13.43;;;;;;;;;;4967569;28;20035;-75
2022/09/30 01:49:19;;;;;;;19.13;12.30;;;;;;;;;;4965354;28;20053;-75
2022/09/30 01:51:52;;;;;;;18.17;12.55;;;;;;;;;;4965491;28;20167;-74
2022/09/30 01:54:21;;;;;;;22.02;13.20;;;;;;;;;;4963118;28;20039;-74
2022/09/30 01:56:49;;;;;;;19.80;13.20;;;;;;;;;;4966797;28;20092;-74
2022/09/30 01:59:27;;;;;;;21.48;13.98;;;;;;;;;;4967509;28;20031;-75
2022/09/30 02:02:05;;;;;;;21.45;14.02;;;;;;;;;;4965393;28;20035;-74
2022/09/30 02:04:43;;;;;;;23.02;14.93;;;;;;;;;;4968282;28;20534;-74
2022/09/30 02:07:13;;;;;;;20.80;14.80;;;;;;;;;;4968263;28;20480;-75
2022/09/30 02:09:51;;;;;;;29.02;14.57;;;;;;;;;;4971502;28;20039;-75
2022/09/30 02:12:19;;;;;;;26.45;14.43;;;;;;;;;;4964583;28;20038;-75
2022/09/30 02:14:48;;;;;;;20.65;14.32;;;;;;;;;;4970019;28;20061;-74
2022/09/30 02:17:19;;;;;;;26.30;15.60;;;;;;;;;;4969271;28;20283;-74
2022/09/30 02:19:47;;;;;;;23.88;15.75;;;;;;;;;;4968204;28;20023;-74
2022/09/30 02:22:18;;;;;;;28.67;16.70;;;;;;;;;;4967011;28;20515;-73
2022/09/30 02:24:44;;;;;;;;;;;;;;;;;;4959121;28;20023;-74
2022/09/30 02:27:14;;;;;;;23.58;15.98;;;;;;;;;;4961656;28;19929;-75
2022/09/30 02:29:44;;;;;;;23.77;15.55;;;;;;;;;;4966310;28;20058;-74
2022/09/30 02:32:14;;;;;;;24.95;16.13;;;;;;;;;;4960625;28;20031;-75
2022/09/30 02:34:44;;;;;;;30.58;17.50;;;;;;;;;;4966458;28;20034;-76
2022/09/30 02:37:14;;;;;;;35.90;20.48;;;;;;;;;;4967900;28;20125;-75
2022/09/30 02:39:51;;;;;;;38.97;22.30;;;;;;;;;;4971119;28;20031;-75
2022/09/30 02:42:19;;;;;;;44.35;23.00;;;;;;;;;;4968493;28;20030;-75
2022/09/30 02:44:46;;;;;;;44.55;22.75;;;;;;;;;;4982084;28;20029;-73
2022/09/30 02:47:12;;;;;;;44.35;23.77;;;;;;;;;;4968761;28;20047;-73
2022/09/30 02:49:44;;;;;;;45.53;24.80;;;;;;;;;;4969986;28;20018;-71
2022/09/30 02:52:11;;;;;;;42.22;24.10;;;;;;;;;;4970565;28;20078;-73
2022/09/30 02:54:37;;;;;;;47.80;25.85;;;;;;;;;;4968369;28;20035;-73
2022/09/30 02:57:19;;;;;;;39.33;23.27;;;;;;;;;;4967077;28;20038;-73
2022/09/30 02:59:51;;;;;;;34.63;19.98;;;;;;;;;;4969457;28;20034;-73
2022/09/30 03:02:17;;;;;;;34.70;19.60;;;;;;;;;;4967070;28;20035;-74
2022/09/30 03:04:45;;;;;;;38.60;22.80;;;;;;;;;;4965957;28;20102;-74
2022/09/30 03:07:11;;;;;;;34.97;21.63;;;;;;;;;;4970835;28;20039;-73
2022/09/30 03:09:37;;;;;;;34.22;21.55;;;;;;;;;;4966126;28;20035;-73
2022/09/30 03:12:12;;;;;;;36.58;22.58;;;;;;;;;;4971124;28;20034;-74
2022/09/30 03:14:53;;;;;;;39.03;23.33;;;;;;;;;;4966914;28;20038;-73
2022/09/30 03:17:19;;;;;;;;;;;;;;;;;;4973014;28;20085;-74
2022/09/30 03:20:04;;;;;;;41.95;23.55;;;;;;;;;;4979212;28;19914;-75
2022/09/30 03:22:33;;;;;;;36.17;22.85;;;;;;;;;;4971980;28;20035;-75
2022/09/30 03:25:10;;;;;;;37.22;22.73;;;;;;;;;;4971436;28;20090;-75
2022/09/30 03:27:54;;;;;;;38.22;22.92;;;;;;;;;;4967447;28;20035;-75
2022/09/30 03:30:25;;;;;;;41.63;23.55;;;;;;;;;;4972421;28;20499;-76
2022/09/30 03:32:51;;;;;;;42.50;24.08;;;;;;;;;;4972722;28;20157;-76
2022/09/30 03:35:20;;;;;;;41.08;22.40;;;;;;;;;;4972868;28;20031;-75
2022/09/30 03:37:56;;;;;;;37.10;22.13;;;;;;;;;;4969758;28;20030;-75
2022/09/30 03:40:28;;;;;;;36.10;21.65;;;;;;;;;;4972385;28;20027;-75
2022/09/30 03:43:04;;;;;;;35.45;22.95;;;;;;;;;;4968927;28;20094;-75
2022/09/30 03:45:37;;;;;;;33.42;21.02;;;;;;;;;;4968645;28;20030;-75
2022/09/30 03:48:05;;;;;;;37.97;22.38;;;;;;;;;;4966444;28;20027;-75
2022/09/30 03:50:32;;;;;;;37.47;21.17;;;;;;;;;;4968417;28;20082;-75
2022/09/30 03:52:58;;;;;;;41.83;21.85;;;;;;;;;;4965451;28;20034;-75
2022/09/30 03:55:25;;;;;;;39.67;22.60;;;;;;;;;;4967189;28;20113;-74
2022/09/30 03:57:52;;;;;;;43.00;23.90;;;;;;;;;;4973004;28;20038;-74
2022/09/30 04:00:18;;;;;;;38.45;23.85;;;;;;;;;;4963962;28;20110;-74
2022/09/30 04:02:44;;;;;;;41.88;23.77;;;;;;;;;;4968122;28;20039;-75
2022/09/30 04:05:11;;;;;;;46.08;24.98;;;;;;;;;;4968087;28;20030;-74
2022/09/30 04:07:37;;;;;;;41.60;22.65;;;;;;;;;;4965465;28;20034;-75
2022/09/30 04:10:03;;;;;;;45.85;24.27;;;;;;;;;;4961311;28;20026;-74
2022/09/30 04:12:29;;;;;;;45.20;25.00;;;;;;;;;;4967121;28;20027;-74
2022/09/30 04:14:55;;;;;;;49.95;25.13;;;;;;;;;;4968792;28;20050;-74
2022/09/30 04:17:21;;;;;;;49.88;24.20;;;;;;;;;;4951195;28;20571;-74
2022/09/30 04:19:47;;;;;;;48.67;25.00;;;;;;;;;;4967002;28;20089;-74
2022/09/30 04:22:13;;;;;;;45.65;24.08;;;;;;;;;;4970215;28;20282;-73
2022/09/30 04:24:39;;;;;;;36.90;22.45;;;;;;;;;;4970669;28;20085;-74
2022/09/30 04:27:05;;;;;;;40.42;21.35;;;;;;;;;;4968360;28;20039;-74
2022/09/30 04:29:31;;;;;;;44.63;24.00;;;;;;;;;;4980956;28;20035;-73
2022/09/30 04:31:57;;;;;;;47.05;24.70;;;;;;;;;;4970070;28;20035;-75
2022/09/30 04:34:23;;;;;;;47.63;25.60;;;;;;;;;;4963176;28;20038;-74
2022/09/30 04:36:49;;;;;;;43.05;23.73;;;;;;;;;;4968047;28;20038;-73
2022/09/30 04:39:15;;;;;;;49.72;24.45;;;;;;;;;;4961339;28;20035;-77
2022/09/30 04:41:41;;;;;;;51.45;25.75;;;;;;;;;;4970562;28;20066;-74
2022/09/30 04:44:07;;;;;;;48.88;25.67;;;;;;;;;;4967161;28;20073;-76
2022/09/30 04:46:35;;;;;;;56.42;27.30;;;;;;;;;;4967641;28;20049;-74
2022/09/30 04:49:02;;;;;;;51.90;26.80;;;;;;;;;;4969783;28;20065;-76
2022/09/30 04:51:28;;;;;;;57.75;27.85;;;;;;;;;;4966260;28;20155;-76
2022/09/30 04:53:55;;;;;;;54.97;28.30;;;;;;;;;;4965607;28;20034;-77
2022/09/30 04:56:25;;;;;;;59.90;29.25;;;;;;;;;;4964766;28;20031;-74
2022/09/30 04:58:53;;;;;;;67.05;30.45;;;;;;;;;;4964066;28;20300;-74
2022/09/30 05:01:20;;;;;;;51.63;27.23;;;;;;;;;;4965573;28;20089;-74
2022/09/30 05:03:46;;;;;;;67.75;26.33;;;;;;;;;;4965096;28;20027;-74
2022/09/30 05:06:13;;;;;;;60.13;26.42;;;;;;;;;;4965828;28;20035;-74
2022/09/30 05:08:39;;;;;;;72.32;37.33;;;;;;;;;;4964573;28;20488;-74
2022/09/30 05:11:09;;;;;;;50.85;28.35;;;;;;;;;;4968441;28;20034;-74
2022/09/30 05:13:36;;;;;;;56.25;27.25;;;;;;;;;;4966034;28;20047;-74
2022/09/30 05:16:03;;;;;;;41.60;23.83;;;;;;;;;;4967423;28;20489;-74
2022/09/30 05:18:29;;;;;;;47.40;24.05;;;;;;;;;;4963192;28;20030;-74
2022/09/30 05:20:56;;;;;;;54.60;26.38;;;;;;;;;;4967560;28;20121;-74
2022/09/30 05:23:23;;;;;;;55.83;28.60;;;;;;;;;;4961976;28;20030;-74
2022/09/30 05:25:49;;;;;;;71.72;31.85;;;;;;;;;;4965121;28;20031;-74
2022/09/30 05:28:15;;;;;;;63.92;32.88;;;;;;;;;;4967496;28;20512;-74
2022/09/30 05:30:42;;;;;;;65.20;33.33;;;;;;;;;;4966453;28;20039;-74
2022/09/30 05:33:08;;;;;;;74.13;33.78;;;;;;;;;;4966618;28;20030;-74
2022/09/30 05:35:35;;;;;;;70.70;33.75;;;;;;;;;;4969499;28;20046;-74
2022/09/30 05:38:04;;;;;;;76.97;34.47;;;;;;;;;;4968077;28;20023;-73
2022/09/30 05:40:30;;;;;;;79.80;35.55;;;;;;;;;;4967392;28;20085;-76
2022/09/30 05:42:57;;;;;;;81.40;35.42;;;;;;;;;;4967271;28;20283;-74
2022/09/30 05:45:23;;;;;;;93.22;35.50;;;;;;;;;;4963522;28;20031;-75
2022/09/30 05:47:53;;;;;;;77.00;35.33;;;;;;;;;;4966730;28;20472;-74
2022/09/30 05:50:19;;;;;;;67.60;34.55;;;;;;;;;;4967757;28;20066;-74
2022/09/30 05:52:45;;;;;;;83.93;36.70;;;;;;;;;;4964464;28;20061;-74
2022/09/30 05:55:11;;;;;;;81.15;39.20;;;;;;;;;;4962997;28;20111;-74
2022/09/30 05:57:38;;;;;;;84.82;38.70;;;;;;;;;;4967869;28;20027;-75
2022/09/30 06:00:04;;;;;;;85.85;40.78;;;;;;;;;;4967239;28;20031;-75
2022/09/30 06:02:30;;;;;;;88.55;41.97;;;;;;;;;;4964947;28;20038;-74
2022/09/30 06:04:56;;;;;;;95.18;42.35;;;;;;;;;;4966155;28;20039;-73
2022/09/30 06:07:22;;;;;;;98.03;44.97;;;;;;;;;;4968903;28;20047;-74
2022/09/30 06:09:48;;;;;;;99.85;39.40;;;;;;;;;;4966968;28;20066;-75
2022/09/30 06:12:15;;;;;;;71.10;34.47;;;;;;;;;;4965379;28;20054;-74
2022/09/30 06:14:41;;;;;;;94.80;40.53;;;;;;;;;;4962781;28;20039;-74
2022/09/30 06:17:07;;;;;;;83.03;41.25;;;;;;;;;;4967650;28;20050;-74
2022/09/30 06:19:33;;;;;;;102.10;45.53;;;;;;;;;;4976562;28;20042;-73
2022/09/30 06:21:59;;;;;;;114.00;51.20;;;;;;;;;;4976893;28;20026;-74
2022/09/30 06:24:25;;;;;;;118.20;53.53;;;;;;;;;;4952231;28;20150;-73
2022/09/30 06:26:51;;;;;;;123.75;54.30;;;;;;;;;;4967195;28;20127;-73
2022/09/30 06:29:18;;;;;;;123.68;55.30;;;;;;;;;;4967763;28;20498;-73
2022/09/30 06:31:44;;;;;;;133.00;57.45;;;;;;;;;;4970873;28;20042;-73
2022/09/30 06:34:10;;;;;;;124.00;57.97;;;;;;;;;;4970919;28;20118;-76
2022/09/30 06:36:36;;;;;;;114.32;55.45;;;;;;;;;;4982380;28;20034;-73
2022/09/30 06:39:03;;;;;;;102.95;52.83;;;;;;;;;;4975133;28;20035;-74
2022/09/30 06:41:29;;;;;;;85.57;45.88;;;;;;;;;;4970008;28;20054;-73
2022/09/30 06:43:55;;;;;;;93.00;48.42;;;;;;;;;;4970626;28;20043;-73
2022/09/30 06:46:23;;;;;;;83.55;44.97;;;;;;;;;;4975130;28;20041;-73
2022/09/30 06:48:55;;;;;;;71.00;43.70;;;;;;;;;;4970087;28;20039;-74
2022/09/30 06:51:21;;;;;;;65.40;40.25;;;;;;;;;;4989554;28;20134;-73
2022/09/30 06:53:50;;;;;;;61.75;37.63;;;;;;;;;;4966154;28;20047;-75
2022/09/30 06:56:17;;;;;;;52.38;33.65;;;;;;;;;;4964915;28;20050;-74
2022/09/30 06:58:44;;;;;;;50.45;32.22;;;;;;;;;;4961717;28;20027;-74
2022/09/30 07:01:14;;;;;;;48.53;33.00;;;;;;;;;;4961520;28;21291;-74
2022/09/30 07:03:40;;;;;;;51.22;33.72;;;;;;;;;;4962492;28;20038;-74
2022/09/30 07:06:06;;;;;;;54.55;35.42;;;;;;;;;;4965931;28;20086;-74
2022/09/30 07:08:33;;;;;;;69.55;39.65;;;;;;;;;;4971278;28;20113;-74
2022/09/30 07:11:04;;;;;;;66.55;38.45;;;;;;;;;;4969642;28;20038;-74
2022/09/30 07:13:31;;;;;;;63.78;39.78;;;;;;;;;;4969313;28;20030;-74
2022/09/30 07:15:57;;;;;;;59.85;39.67;;;;;;;;;;4965168;28;20448;-74
2022/09/30 07:18:24;;;;;;;63.75;40.55;;;;;;;;;;4970273;28;20063;-74
2022/09/30 07:20:53;;;;;;;57.03;37.70;;;;;;;;;;4967779;28;20416;-75
2022/09/30 07:23:20;;;;;;;62.83;40.00;;;;;;;;;;4969722;28;20097;-75
2022/09/30 07:25:50;;;;;;;70.85;40.78;;;;;;;;;;4974785;28;20065;-74
2022/09/30 07:28:16;;;;;;;64.22;40.78;;;;;;;;;;4973109;28;20022;-74
2022/09/30 07:30:43;;;;;;;67.55;38.72;;;;;;;;;;4964650;28;20134;-74
2022/09/30 07:33:15;;;;;;;60.25;39.13;;;;;;;;;;4970481;28;20022;-74
2022/09/30 07:35:42;;;;;;;53.53;37.38;;;;;;;;;;4968225;28;20045;-74
2022/09/30 07:38:09;;;;;;;59.08;37.88;;;;;;;;;;4969322;28;20070;-74
2022/09/30 07:40:35;;;;;;;58.30;37.75;;;;;;;;;;4969294;28;20038;-74
2022/09/30 07:43:02;;;;;;;55.55;39.10;;;;;;;;;;4967087;28;20035;-75
2022/09/30 07:45:28;;;;;;;52.88;37.92;;;;;;;;;;4967419;28;20042;-74
2022/09/30 07:47:54;;;;;;;50.40;36.60;;;;;;;;;;4968257;28;20456;-74
2022/09/30 07:50:20;;;;;;;55.75;38.65;;;;;;;;;;4967795;28;20092;-74
2022/09/30 07:52:46;;;;;;;49.42;35.55;;;;;;;;;;4971721;28;20074;-74
2022/09/30 07:55:12;;;;;;;39.80;30.35;;;;;;;;;;4978683;28;20058;-74
2022/09/30 07:57:38;;;;;;;33.25;26.95;;;;;;;;;;4974402;28;20039;-73
2022/09/30 08:00:05;;;;;;;31.77;23.70;;;;;;;;;;4973025;28;20620;-74
2022/09/30 08:02:31;;;;;;;26.80;19.15;;;;;;;;;;4974383;28;20042;-74
2022/09/30 08:04:58;;;;;;;23.85;18.63;;;;;;;;;;4971294;28;20037;-75
2022/09/30 08:07:24;;;;;;;25.77;17.30;;;;;;;;;;4974389;28;20050;-74
2022/09/30 08:09:50;;;;;;;21.75;16.48;;;;;;;;;;4969952;28;20071;-74
2022/09/30 08:12:16;;;;;;;23.42;17.52;;;;;;;;;;4972577;28;20039;-74
2022/09/30 08:14:43;;;;;;;22.17;16.75;;;;;;;;;;4971048;28;20154;-74
2022/09/30 08:17:09;;;;;;;21.90;16.55;;;;;;;;;;4972210;28;20030;-74
2022/09/30 08:19:35;;;;;;;19.17;15.25;;;;;;;;;;4972924;28;20089;-74
2022/09/30 08:22:02;;;;;;;20.00;15.35;;;;;;;;;;4971234;28;20027;-74
2022/09/30 08:24:28;;;;;;;16.08;13.65;;;;;;;;;;4970853;28;20027;-74
2022/09/30 08:26:54;;;;;;;18.85;13.88;;;;;;;;;;4972302;28;20039;-74
2022/09/30 08:29:20;;;;;;;18.95;14.82;;;;;;;;;;4980768;28;21750;-75
2022/09/30 08:31:47;;;;;;;22.17;14.63;;;;;;;;;;4971251;28;20121;-74
2022/09/30 08:34:13;;;;;;;17.65;13.60;;;;;;;;;;4970472;28;20489;-75
2022/09/30 08:36:39;;;;;;;16.65;13.73;;;;;;;;;;4968568;28;20036;-75
2022/09/30 08:39:05;;;;;;;19.73;12.60;;;;;;;;;;4967260;28;20472;-74
2022/09/30 08:41:50;;;;;;;16.88;12.50;;;;;;;;;;4970601;28;20026;-74
2022/09/30 08:44:24;;;;;;;16.33;12.82;;;;;;;;;;4960138;28;20027;-74
2022/09/30 08:46:51;;;;;;;15.13;13.05;;;;;;;;;;4975646;28;20031;-75
2022/09/30 08:49:20;;;;;;;20.85;14.00;;;;;;;;;;4976811;28;21618;-75
2022/09/30 08:51:47;;;;;;;14.65;12.35;;;;;;;;;;4971954;28;20054;-74
2022/09/30 08:54:15;;;;;;;15.90;12.90;;;;;;;;;;4965670;28;20541;-74
2022/09/30 08:56:42;;;;;;;18.08;13.02;;;;;;;;;;4965626;28;20069;-74
2022/09/30 08:59:14;;;;;;;14.82;12.07;;;;;;;;;;4964989;28;20031;-75
2022/09/30 09:01:46;;;;;;;16.55;12.25;;;;;;;;;;4964785;28;20078;-74
2022/09/30 09:04:13;;;;;;;20.60;11.73;;;;;;;;;;4962720;28;20031;-75
2022/09/30 09:06:49;;;;;;;14.73;10.93;;;;;;;;;;4963361;28;20120;-75
2022/09/30 09:09:33;;;;;;;21.55;12.00;;;;;;;;;;4967732;28;20038;-74
2022/09/30 09:11:59;;;;;;;16.15;11.57;;;;;;;;;;4966189;28;20043;-75
2022/09/30 09:14:43;;;;;;;16.02;11.65;;;;;;;;;;4967150;28;20038;-75
2022/09/30 09:17:21;;;;;;;14.65;10.88;;;;;;;;;;4963847;28;20568;-75
2022/09/30 09:19:50;;;;;;;13.05;10.75;;;;;;;;;;4967192;28;20023;-74
2022/09/30 09:22:17;;;;;;;14.80;9.82;;;;;;;;;;4965634;28;20090;-75
2022/09/30 09:24:46;;;;;;;15.13;9.02;;;;;;;;;;4962186;28;20065;-75
2022/09/30 09:27:18;;;;;;;10.00;8.70;;;;;;;;;;4966105;28;20037;-75
2022/09/30 09:29:53;;;;;;;10.18;8.20;;;;;;;;;;4966621;28;20030;-75
2022/09/30 09:32:19;;;;;;;11.30;8.40;;;;;;;;;;4964430;28;20393;-75
2022/09/30 09:34:50;;;;;;;8.25;7.10;;;;;;;;;;4964040;28;20483;-75
2022/09/30 09:38:23;;;;;;;10.93;7.45;;;;;;;;;;4966133;28;20096;-75
2022/09/30 09:40:14;;;;;;;8.90;7.30;;;;;;;;;;4964148;28;20764;-75
2022/09/30 09:43:12;;;;;;;15.15;7.43;;;;;;;;;;4965261;28;20027;-75
2022/09/30 09:45:54;;;;;;;11.00;6.75;;;;;;;;;;4962408;28;20046;-75
2022/09/30 09:48:20;;;;;;;10.52;6.47;;;;;;;;;;4972272;28;20041;-76
2022/09/30 09:50:52;;;;;;;7.30;5.50;;;;;;;;;;4965331;28;20050;-76
2022/09/30 09:53:18;;;;;;;9.07;5.88;;;;;;;;;;4962541;28;20046;-76
2022/09/30 09:55:44;;;;;;;6.53;5.10;;;;;;;;;;4964539;28;20039;-75
2022/09/30 09:58:16;;;;;;;7.55;5.15;;;;;;;;;;4964625;28;20484;-75
2022/09/30 10:03:18;;;;;;;6.85;4.57;;;;;;;;;;4964959;28;20039;-76
2022/09/30 10:05:46;;;;;;;10.25;3.97;;;;;;;;;;4964632;28;20496;-74
2022/09/30 10:08:22;;;;;;;7.25;4.03;;;;;;;;;;4962717;28;20035;-76
2022/09/30 10:10:51;;;;;;;4.05;3.10;;;;;;;;;;4961913;28;20081;-76
2022/09/30 10:13:19;;;;;;;7.22;2.15;;;;;;;;;;4965403;28;20041;-75
2022/09/30 10:15:46;;;;;;;4.07;2.50;;;;;;;;;;4964254;28;20068;-75
2022/09/30 10:18:38;;;;;;;4.55;2.55;;;;;;;;;;4966595;28;20081;-73
2022/09/30 10:21:06;;;;;;;3.25;1.90;;;;;;;;;;4963332;28;20126;-75
2022/09/30 10:23:39;;;;;;;2.10;1.48;;;;;;;;;;4963718;28;20050;-74
2022/09/30 10:26:14;;;;;;;4.57;1.90;;;;;;;;;;4962427;28;20113;-74
2022/09/30 10:28:45;;;;;;;8.40;1.60;;;;;;;;;;4965252;28;20042;-74
2022/09/30 10:31:15;;;;;;;6.07;1.48;;;;;;;;;;4967142;28;20130;-74
2022/09/30 10:33:43;;;;;;;4.35;1.40;;;;;;;;;;4967821;28;20121;-74
2022/09/30 10:36:17;;;;;;;3.72;1.45;;;;;;;;;;4963671;28;20045;-74
2022/09/30 10:39:00;;;;;;;5.97;1.58;;;;;;;;;;4970845;28;20031;-74
2022/09/30 10:41:28;;;;;;;3.38;1.80;;;;;;;;;;4970741;28;20031;-75
2022/09/30 10:43:55;;;;;;;3.30;1.83;;;;;;;;;;4973754;28;20027;-74
2022/09/30 10:46:29;;;;;;;7.88;2.00;;;;;;;;;;4969771;28;20038;-75
2022/09/30 10:48:56;;;;;;;6.75;1.90;;;;;;;;;;4971045;28;20236;-76
2022/09/30 10:51:24;;;;;;;3.10;1.73;;;;;;;;;;4964725;28;20043;-75
2022/09/30 10:53:50;;;;;;;6.03;1.90;;;;;;;;;;4966289;28;20496;-75
2022/09/30 10:56:38;;;;;;;6.70;1.63;;;;;;;;;;4967410;28;20081;-74
2022/09/30 10:59:14;;;;;;;3.33;1.40;;;;;;;;;;4968661;28;20631;-74
2022/09/30 11:01:46;;;;;;;5.68;2.00;;;;;;;;;;4972129;28;20038;-74
2022/09/30 11:04:12;;;;;;;4.10;1.45;;;;;;;;;;4968316;28;20575;-75
2022/09/30 11:06:39;;;;;;;5.05;1.70;;;;;;;;;;4972380;28;20031;-73
2022/09/30 11:09:15;;;;;;;9.88;2.20;;;;;;;;;;4971846;28;20038;-73
2022/09/30 11:11:43;;;;;;;3.97;2.10;;;;;;;;;;4966664;28;20027;-78
2022/09/30 11:14:09;;;;;;;10.60;2.88;;;;;;;;;;4966129;28;20034;-73
2022/09/30 11:16:47;;;;;;;10.35;2.95;;;;;;;;;;4967611;28;20042;-73
2022/09/30 11:19:19;;;;;;;12.95;3.15;;;;;;;;;;4968832;28;20061;-73
2022/09/30 11:21:47;;;;;;;9.98;3.35;;;;;;;;;;4969479;28;20058;-73
2022/09/30 11:24:14;;;;;;;6.43;3.38;;;;;;;;;;4970195;28;20022;-72
2022/09/30 11:26:40;;;;;;;4.70;3.60;;;;;;;;;;4967889;28;20043;-72
2022/09/30 11:29:25;;;;;;;8.05;4.07;;;;;;;;;;4966504;28;20042;-72
2022/09/30 11:32:11;;;;;;;6.20;3.65;;;;;;;;;;4969779;28;20041;-72
2022/09/30 11:34:46;;;;;;;7.97;3.60;;;;;;;;;;4965032;28;20046;-72
2022/09/30 11:37:25;;;;;;;5.05;3.17;;;;;;;;;;4972769;28;20070;-72
2022/09/30 11:39:51;;;;;;;13.18;2.60;;;;;;;;;;4972329;28;20425;-72
2022/09/30 11:42:26;;;;;;;6.60;2.50;;;;;;;;;;4973746;28;20034;-72
2022/09/30 11:44:58;;;;;;;6.47;2.60;;;;;;;;;;4976577;28;20369;-73
2022/09/30 11:47:27;;;;;;;6.50;2.75;;;;;;;;;;4976170;28;20022;-72
2022/09/30 11:50:11;;;;;;;4.07;1.75;;;;;;;;;;4971823;28;20039;-73
2022/09/30 11:52:57;;;;;;;7.60;1.83;;;;;;;;;;4982993;28;20050;-72
2022/09/30 11:55:39;;;;;;;14.02;1.90;;;;;;;;;;4969131;28;20042;-73
2022/09/30 11:58:08;;;;;;;2.33;1.20;;;;;;;;;;4972897;28;20034;-71
2022/09/30 12:00:36;;;;;;;4.05;1.35;;;;;;;;;;4965766;28;20070;-72
2022/09/30 12:03:13;;;;;;;4.32;1.30;;;;;;;;;;4983702;28;20459;-73
2022/09/30 12:05:45;;;;;;;4.63;1.45;;;;;;;;;;4987416;28;20093;-72
2022/09/30 12:08:16;;;;;;;7.45;1.50;;;;;;;;;;4991348;28;20026;-74
2022/09/30 12:10:43;;;;;;;;;;;;;;;;;;4977630;28;20117;-73
2022/09/30 12:13:11;;;;;;;4.22;1.70;;;;;;;;;;4975383;28;19910;-74
2022/09/30 12:15:40;;;;;;;4.32;1.80;;;;;;;;;;4980306;28;20111;-74
2022/09/30 12:18:10;;;;;;;15.45;2.35;;;;;;;;;;4974371;28;20031;-73
2022/09/30 12:20:46;;;;;;;8.23;2.03;;;;;;;;;;4973421;28;20121;-75
2022/09/30 12:23:31;;;;;;;4.70;2.00;;;;;;;;;;4964479;28;20050;-73
2022/09/30 12:25:59;;;;;;;9.73;2.10;;;;;;;;;;4963238;28;20040;-73
2022/09/30 12:31:26;;;;;;;6.68;2.55;;;;;;;;;;4969192;28;20093;-76
2022/09/30 12:34:06;;;;;;;16.27;2.72;;;;;;;;;;4963939;28;20027;-74
2022/09/30 12:36:41;;;;;;;7.95;2.90;;;;;;;;;;4972654;28;20041;-73
2022/09/30 12:39:25;;;;;;;6.82;2.53;;;;;;;;;;4974035;28;20157;-73
2022/09/30 12:42:02;;;;;;;28.60;3.55;;;;;;;;;;4973762;28;20054;-73
2022/09/30 12:44:48;;;;;;;25.80;4.03;;;;;;;;;;4962217;28;20171;-72
2022/09/30 12:47:19;;;;;;;9.93;4.45;;;;;;;;;;4978285;28;20499;-72
2022/09/30 12:49:45;;;;;;;10.55;3.35;;;;;;;;;;4970971;28;20146;-73
2022/09/30 12:52:17;;;;;;;7.63;3.03;;;;;;;;;;4966050;28;20073;-73
2022/09/30 12:54:53;;;;;;;10.57;3.28;;;;;;;;;;4972695;28;20125;-73
2022/09/30 12:57:23;;;;;;;7.85;3.63;;;;;;;;;;4972247;28;20493;-73
2022/09/30 12:59:57;;;;;;;14.90;4.43;;;;;;;;;;4970609;28;20027;-72
2022/09/30 13:02:26;;;;;;;18.80;4.40;;;;;;;;;;4971610;28;20035;-72
2022/09/30 13:04:52;;;;;;;10.73;5.05;;;;;;;;;;4976741;28;20033;-73
2022/09/30 13:07:20;;;;;;;10.93;4.53;;;;;;;;;;4975987;28;20027;-73
2022/09/30 13:09:57;;;;;;;8.93;4.53;;;;;;;;;;4972025;28;20027;-73
2022/09/30 13:12:26;;;;;;;9.00;4.18;;;;;;;;;;4974319;28;20027;-73
2022/09/30 13:15:12;;;;;;;7.32;4.60;;;;;;;;;;4969700;28;20031;-72
2022/09/30 13:17:38;;;;;;;9.02;3.85;;;;;;;;;;4968283;28;20034;-72
2022/09/30 13:20:24;;;;;;;6.07;4.00;;;;;;;;;;4979615;28;20112;-72
2022/09/30 13:22:54;;;;;;;10.07;4.00;;;;;;;;;;4970058;28;20103;-72
2022/09/30 13:25:20;;;;;;;8.43;3.20;;;;;;;;;;4975162;28;20061;-72
2022/09/30 13:27:52;;;;;;;13.88;4.00;;;;;;;;;;4964524;28;20047;-73
2022/09/30 13:30:18;;;;;;;4.07;3.15;;;;;;;;;;4978239;28;20034;-72
2022/09/30 13:32:46;;;;;;;8.88;2.70;;;;;;;;;;4979198;28;20038;-73
2022/09/30 13:35:38;;;;;;;8.15;3.53;;;;;;;;;;4985363;28;20030;-72
2022/09/30 13:38:13;;;;;;;10.98;3.72;;;;;;;;;;4972762;28;20039;-73
2022/09/30 13:40:51;;;;;;;8.13;4.00;;;;;;;;;;4974395;28;20049;-73
2022/09/30 13:43:25;;;;;;;8.23;4.43;;;;;;;;;;4969823;28;20027;-74
2022/09/30 13:45:52;;;;;;;11.73;4.43;;;;;;;;;;4968211;28;20164;-73
2022/09/30 13:48:22;;;;;;;10.60;4.25;;;;;;;;;;4972583;28;20081;-74
2022/09/30 13:50:52;;;;;;;10.55;3.55;;;;;;;;;;4979361;28;20034;-72
2022/09/30 13:53:18;;;;;;;;;;;;;;;;;;4980418;28;20373;-74
2022/09/30 13:55:48;;;;;;;6.93;3.70;;;;;;;;;;4975352;28;19929;-73
2022/09/30 13:58:32;;;;;;;10.30;4.28;;;;;;;;;;4969126;28;20038;-74
2022/09/30 14:00:58;;;;;;;6.68;3.60;;;;;;;;;;4974713;28;20092;-74
2022/09/30 14:03:43;;;;;;;14.98;3.55;;;;;;;;;;4968729;28;21028;-73
2022/09/30 14:06:32;;;;;;;12.80;3.85;;;;;;;;;;4976100;28;20030;-73
2022/09/30 14:09:17;;;;;;;8.52;3.50;;;;;;;;;;4965844;28;20151;-73
2022/09/30 14:11:43;;;;;;;4.97;3.40;;;;;;;;;;4968154;28;20066;-73
2022/09/30 14:14:22;;;;;;;7.53;3.45;;;;;;;;;;4962341;28;20038;-74
2022/09/30 14:16:48;;;;;;;4.90;3.30;;;;;;;;;;4965504;28;20061;-73
2022/09/30 14:19:32;;;;;;;9.77;4.05;;;;;;;;;;4967281;28;20023;-74
2022/09/30 14:22:02;;;;;;;10.98;3.88;;;;;;;;;;4968890;28;20042;-74
2022/09/30 14:24:35;;;;;;;7.43;4.57;;;;;;;;;;4972013;28;20328;-73
2022/09/30 14:27:01;;;;;;;8.50;4.20;;;;;;;;;;4976303;28;20027;-73
2022/09/30 14:29:42;;;;;;;10.70;4.50;;;;;;;;;;4961424;28;20505;-73
2022/09/30 14:32:25;;;;;;;15.77;5.00;;;;;;;;;;4968657;28;20031;-74
2022/09/30 14:34:52;;;;;;;6.25;4.40;;;;;;;;;;4979400;28;20080;-74
2022/09/30 14:37:23;;;;;;;7.28;4.45;;;;;;;;;;4999857;28;20039;-74
2022/09/30 14:39:49;;;;;;;9.93;5.15;;;;;;;;;;4967824;28;20063;-74
2022/09/30 14:42:23;;;;;;;6.70;5.07;;;;;;;;;;4974838;28;20480;-73
2022/09/30 14:44:49;;;;;;;9.13;5.93;;;;;;;;;;4967838;28;20042;-73
2022/09/30 14:47:16;;;;;;;6.65;5.40;;;;;;;;;;4968990;28;20031;-73
2022/09/30 14:49:42;;;;;;;13.27;5.90;;;;;;;;;;4986475;28;20061;-73
2022/09/30 14:52:28;;;;;;;10.05;5.68;;;;;;;;;;4968855;28;20059;-73